Pagrindinis puslapis
METAR-TAF:

METAR-TAF

Oro uostai :

Karlstadas, Švedija

platuma: 59-26-41N, ilguma: 013-20-15E, Aukštis: 107 m

Dabartinis oras

Ataskaita buvo paskelbta 20 minutes, ne 22:50 UTC
Vėjas 1 kt nuo kintamojo kryptimis
Temperatūra -1°C
Drėgmė 100%
Slėgis 1031 hPa
Matomumas: 6000 m
rūkana

METAR: ESOK 282250Z AUTO VRB01KT 6000 BR OVC005/// M01/M01 Q1031

Laikas: 00:10 (23:10 UTC)


TAF: trūkstamas

Orai ataskaitas ir orų prognozės (METAR, TAF).

turimą stotys yra geltonos ir raudonos taškus žemėlapyje.

Perkelti pele per norėdami pamatyti stoties vardą.

Tada spustelėkite, norėdami matyti oro stebėjimo ir prognozės.

Norėdami pakeisti žemėlapį: spustelėkite ant žalios mygtukų su juodo kryžiaus žemyn,; žalią mygtuką su brūkšneliu, jei norite nutolinti; arba žalių rodyklių gretimoms žemėlapius.


METAR-TAF: